createdAt,value
2024-01-09T00:00:59.679Z,76.44
2024-01-09T00:03:31.755Z,76.77
2024-01-09T00:06:03.933Z,76.42
2024-01-09T00:08:35.759Z,76.44
2024-01-09T00:11:07.990Z,76.53
2024-01-09T00:13:39.755Z,76.35
2024-01-09T00:16:11.724Z,76.55
2024-01-09T00:18:43.610Z,77.23
2024-01-09T00:21:15.465Z,76.79
2024-01-09T00:23:47.251Z,76.73
2024-01-09T00:26:19.434Z,77.28
2024-01-09T00:28:51.172Z,76.63
2024-01-09T00:31:23.064Z,76.74
2024-01-09T00:33:54.979Z,77.22
2024-01-09T00:36:26.749Z,77.20
2024-01-09T00:38:58.754Z,77.32
2024-01-09T00:41:30.501Z,77.60
2024-01-09T00:44:02.594Z,77.38
2024-01-09T00:46:34.640Z,77.09
2024-01-09T00:49:07.048Z,77.39
2024-01-09T00:51:38.818Z,77.28
2024-01-09T00:54:10.722Z,76.85
2024-01-09T00:56:42.480Z,77.27
2024-01-09T00:59:14.289Z,77.20
2024-01-09T01:01:46.389Z,77.21
2024-01-09T01:04:18.141Z,77.30
2024-01-09T01:06:49.901Z,77.49
2024-01-09T01:09:21.618Z,77.45
2024-01-09T01:11:53.413Z,77.79
2024-01-09T01:14:25.235Z,77.98
2024-01-09T01:16:57.025Z,78.17
2024-01-09T01:19:28.811Z,77.99
2024-01-09T01:22:00.580Z,78.25
2024-01-09T01:24:32.292Z,78.19
2024-01-09T01:27:04.324Z,78.30
2024-01-09T01:29:36.488Z,78.61
2024-01-09T01:32:08.598Z,78.70
2024-01-09T01:34:40.631Z,78.40
2024-01-09T01:37:12.340Z,78.80
2024-01-09T01:39:44.301Z,79.49
2024-01-09T01:42:16.013Z,79.04
2024-01-09T01:44:48.153Z,79.20
2024-01-09T01:47:19.986Z,79.44
2024-01-09T01:49:52.121Z,79.42
2024-01-09T01:52:23.824Z,80.11
2024-01-09T01:54:55.852Z,80.08
2024-01-09T01:57:27.895Z,79.98
2024-01-09T01:59:59.977Z,79.88
2024-01-09T02:02:32.700Z,79.77
2024-01-09T02:05:04.442Z,79.90
2024-01-09T02:07:36.228Z,80.68
2024-01-09T02:10:07.957Z,80.76
2024-01-09T02:12:39.989Z,80.76
2024-01-09T02:15:11.696Z,80.63
2024-01-09T02:17:43.681Z,81.27
2024-01-09T02:20:15.511Z,81.25
2024-01-09T02:22:47.532Z,81.16
2024-01-09T02:25:19.575Z,81.88
2024-01-09T02:27:51.688Z,81.96
2024-01-09T02:30:23.853Z,81.41
2024-01-09T02:32:55.698Z,81.47
2024-01-09T02:35:27.955Z,81.67
2024-01-09T02:37:59.714Z,82.16
2024-01-09T02:40:31.906Z,82.41
2024-01-09T02:43:03.635Z,82.86
2024-01-09T02:45:35.817Z,82.54
2024-01-09T02:48:07.693Z,82.52
2024-01-09T02:50:39.962Z,82.90
2024-01-09T02:53:12.045Z,83.40
2024-01-09T02:55:43.798Z,82.99
2024-01-09T02:58:15.517Z,83.43
2024-01-09T03:00:47.298Z,83.74
2024-01-09T03:03:19.181Z,83.47
2024-01-09T03:05:51.157Z,83.89
2024-01-09T03:08:23.023Z,83.99
2024-01-09T03:10:54.778Z,83.85
2024-01-09T03:13:26.515Z,84.44
2024-01-09T03:15:58.256Z,84.72
2024-01-09T03:18:30.395Z,84.17
2024-01-09T03:21:02.520Z,84.17
2024-01-09T03:23:34.516Z,84.00
2024-01-09T03:26:06.611Z,84.10
2024-01-09T03:28:38.332Z,84.37
2024-01-09T03:31:10.056Z,84.13
2024-01-09T03:33:41.850Z,84.58
2024-01-09T03:36:13.630Z,84.43
2024-01-09T03:38:45.439Z,84.71
2024-01-09T03:41:17.469Z,84.63
2024-01-09T03:43:49.211Z,84.57
2024-01-09T03:46:21.288Z,84.83
2024-01-09T03:48:53.066Z,84.80
2024-01-09T03:51:25.141Z,85.22
2024-01-09T03:53:57.192Z,85.18
2024-01-09T03:56:28.966Z,84.89
2024-01-09T03:59:00.969Z,85.44
2024-01-09T04:01:32.671Z,85.16
2024-01-09T04:04:04.632Z,85.30
2024-01-09T04:06:36.448Z,85.28
2024-01-09T04:09:08.520Z,85.50
2024-01-09T04:11:40.279Z,85.64
2024-01-09T04:14:12.298Z,85.56
2024-01-09T04:16:44.024Z,85.80
2024-01-09T04:19:15.842Z,85.89
2024-01-09T04:21:47.596Z,86.34
2024-01-09T04:24:19.685Z,86.64
2024-01-09T04:26:51.773Z,86.92
2024-01-09T04:29:23.665Z,86.74
2024-01-09T04:31:55.421Z,86.95
2024-01-09T04:34:27.172Z,87.30
2024-01-09T04:36:59.019Z,86.73
2024-01-09T04:39:30.760Z,86.67
2024-01-09T04:42:02.862Z,87.12
2024-01-09T04:44:34.684Z,87.17
2024-01-09T04:47:07.320Z,87.10
2024-01-09T04:49:39.075Z,87.11
2024-01-09T04:52:11.212Z,86.81
2024-01-09T04:54:42.918Z,86.74
2024-01-09T04:57:14.777Z,87.07
2024-01-09T04:59:46.656Z,87.18
2024-01-09T05:02:18.919Z,87.42
2024-01-09T05:04:50.640Z,87.35
2024-01-09T05:07:22.641Z,87.23
2024-01-09T05:09:54.371Z,87.24
2024-01-09T05:12:26.421Z,87.18
2024-01-09T05:14:58.203Z,87.30
2024-01-09T05:17:30.133Z,87.69
2024-01-09T05:20:01.935Z,88.02
2024-01-09T05:22:33.867Z,87.84
2024-01-09T05:25:05.586Z,87.96
2024-01-09T05:27:37.493Z,87.76
2024-01-09T05:30:09.264Z,88.10
2024-01-09T05:32:41.463Z,87.54
2024-01-09T05:35:13.310Z,87.68
2024-01-09T05:37:45.048Z,87.87
2024-01-09T05:40:16.769Z,87.75
2024-01-09T05:42:48.971Z,88.13
2024-01-09T05:45:20.689Z,87.19
2024-01-09T05:47:52.546Z,87.24
2024-01-09T05:50:24.684Z,87.62
2024-01-09T05:52:56.449Z,87.14
2024-01-09T05:55:28.536Z,87.25
2024-01-09T05:58:00.278Z,87.45
2024-01-09T06:00:32.328Z,87.23
2024-01-09T06:03:04.125Z,87.58
2024-01-09T06:05:36.271Z,87.77
2024-01-09T06:08:08.029Z,88.06
2024-01-09T06:10:39.776Z,88.52
2024-01-09T06:13:11.535Z,88.46
2024-01-09T06:15:43.268Z,88.89
2024-01-09T06:18:15.495Z,88.76
2024-01-09T06:20:47.306Z,89.94
2024-01-09T06:23:19.308Z,90.01
2024-01-09T06:25:53.742Z,88.81
2024-01-09T06:28:25.772Z,88.92
2024-01-09T06:30:57.577Z,88.92
2024-01-09T06:33:29.511Z,88.75
2024-01-09T06:36:01.384Z,88.41
2024-01-09T06:38:33.485Z,88.45
2024-01-09T06:41:05.216Z,88.48
2024-01-09T06:43:37.363Z,88.35
2024-01-09T06:46:09.371Z,88.56
2024-01-09T06:48:41.462Z,88.86
2024-01-09T06:51:13.427Z,89.15
2024-01-09T06:53:45.216Z,89.38
2024-01-09T06:56:17.429Z,89.25
2024-01-09T06:58:50.530Z,89.41
2024-01-09T07:01:24.583Z,88.81
2024-01-09T07:03:56.440Z,89.23
2024-01-09T07:06:28.587Z,89.29
2024-01-09T07:09:00.392Z,89.15
2024-01-09T07:11:32.281Z,89.10
2024-01-09T07:14:04.404Z,88.95
2024-01-09T07:16:38.199Z,88.42
2024-01-09T07:19:10.824Z,88.67
2024-01-09T07:21:42.554Z,88.40
2024-01-09T07:24:14.365Z,88.31
2024-01-09T07:26:46.191Z,88.43
2024-01-09T07:29:18.174Z,88.37
2024-01-09T07:31:50.008Z,88.38
2024-01-09T07:34:21.911Z,88.29
2024-01-09T07:36:53.989Z,88.03
2024-01-09T07:39:26.013Z,88.21
2024-01-09T07:41:58.131Z,88.15
2024-01-09T07:44:29.908Z,87.94
2024-01-09T07:47:01.660Z,87.94
2024-01-09T07:49:33.486Z,87.54
2024-01-09T07:52:05.630Z,87.41
2024-01-09T07:54:37.345Z,86.72
2024-01-09T07:57:18.706Z,87.12
2024-01-09T07:59:54.227Z,86.41
2024-01-09T08:02:26.053Z,86.31
2024-01-09T08:04:58.297Z,85.86
2024-01-09T08:07:30.044Z,85.92
2024-01-09T08:10:02.125Z,85.28
2024-01-09T08:12:33.856Z,85.12
2024-01-09T08:15:06.139Z,84.89
2024-01-09T08:17:38.010Z,84.51
2024-01-09T08:20:10.114Z,84.42
2024-01-09T08:22:41.826Z,83.65
2024-01-09T08:25:13.851Z,83.57
2024-01-09T08:27:45.564Z,82.92
2024-01-09T08:30:17.435Z,82.88
2024-01-09T08:32:49.407Z,82.81
2024-01-09T08:35:21.578Z,82.06
2024-01-09T08:37:53.630Z,81.90
2024-01-09T08:40:25.347Z,81.61
2024-01-09T08:42:57.278Z,81.14
2024-01-09T08:45:29.057Z,81.23
2024-01-09T08:48:01.228Z,81.02
2024-01-09T08:50:33.021Z,80.87
2024-01-09T08:53:05.162Z,80.24
2024-01-09T08:55:36.876Z,79.47
2024-01-09T08:58:08.912Z,78.85
2024-01-09T09:00:40.716Z,78.38
2024-01-09T09:03:12.670Z,77.91
2024-01-09T09:05:44.568Z,77.75
2024-01-09T09:08:16.345Z,77.59
2024-01-09T09:10:48.336Z,76.74
2024-01-09T09:13:20.060Z,76.40
2024-01-09T09:15:52.136Z,76.06
2024-01-09T09:18:24.090Z,75.70
2024-01-09T09:20:56.400Z,75.28
2024-01-09T09:23:28.189Z,74.43
2024-01-09T09:26:00.315Z,73.81
2024-01-09T09:28:40.624Z,73.22
2024-01-09T09:31:21.730Z,72.72
2024-01-09T09:33:53.896Z,71.06
2024-01-09T09:36:25.650Z,70.28
2024-01-09T09:38:57.729Z,68.89
2024-01-09T09:41:29.541Z,68.63
2024-01-09T09:44:01.409Z,67.50
2024-01-09T09:46:33.167Z,66.62
2024-01-09T09:49:05.587Z,66.07
2024-01-09T09:51:37.405Z,64.74
2024-01-09T09:54:09.566Z,64.39
2024-01-09T09:56:43.583Z,64.50
2024-01-09T09:59:22.414Z,64.05
2024-01-09T10:01:54.174Z,63.04
2024-01-09T10:04:25.951Z,62.03
2024-01-09T10:06:57.796Z,61.98
2024-01-09T10:09:29.620Z,61.48
2024-01-09T10:12:01.416Z,61.04
2024-01-09T10:14:33.220Z,60.88
2024-01-09T10:17:05.209Z,60.53
2024-01-09T10:19:37.084Z,60.15
2024-01-09T10:22:09.325Z,60.57
2024-01-09T10:24:41.259Z,59.73
2024-01-09T10:27:13.019Z,58.77
2024-01-09T10:29:45.108Z,59.09
2024-01-09T10:32:16.939Z,58.93
2024-01-09T10:34:49.117Z,59.41
2024-01-09T10:37:21.157Z,59.03
2024-01-09T10:39:53.251Z,58.90
2024-01-09T10:42:24.973Z,57.53
2024-01-09T10:44:57.096Z,57.26
2024-01-09T10:47:29.026Z,57.48
2024-01-09T10:50:01.296Z,57.95
2024-01-09T10:52:33.626Z,59.45
2024-01-09T10:55:05.339Z,58.03
2024-01-09T10:57:37.147Z,57.47
2024-01-09T11:00:08.902Z,57.90
2024-01-09T11:02:41.105Z,57.43
2024-01-09T11:05:12.907Z,57.97
2024-01-09T11:07:44.826Z,58.80
2024-01-09T11:10:16.608Z,58.37
2024-01-09T11:12:48.726Z,58.55
2024-01-09T11:15:20.913Z,58.83
2024-01-09T11:17:53.086Z,58.23
2024-01-09T11:20:25.046Z,57.88
2024-01-09T11:22:56.773Z,57.98
2024-01-09T11:25:28.784Z,58.63
2024-01-09T11:28:00.641Z,58.49
2024-01-09T11:30:36.787Z,58.76
2024-01-09T11:33:10.508Z,59.25
2024-01-09T11:35:42.328Z,59.75
2024-01-09T11:38:14.102Z,58.34
2024-01-09T11:40:45.858Z,58.87
2024-01-09T11:43:17.916Z,60.43
2024-01-09T11:45:49.642Z,59.86
2024-01-09T11:48:21.536Z,58.73
2024-01-09T11:50:53.427Z,58.53
2024-01-09T11:53:25.248Z,58.58
2024-01-09T11:55:57.013Z,58.42
2024-01-09T11:58:29.069Z,58.27
2024-01-09T12:01:00.822Z,58.04
2024-01-09T12:03:32.920Z,58.73
2024-01-09T12:06:04.682Z,57.83
2024-01-09T12:08:36.877Z,57.93
2024-01-09T12:11:08.618Z,58.27
2024-01-09T12:13:40.718Z,57.59
2024-01-09T12:16:12.819Z,57.44
2024-01-09T12:18:44.765Z,57.38
2024-01-09T12:21:16.965Z,56.86
2024-01-09T12:24:04.013Z,57.42
2024-01-09T12:26:40.551Z,57.40
2024-01-09T12:29:12.230Z,57.95
2024-01-09T12:31:44.048Z,57.19
2024-01-09T12:34:15.959Z,56.87
2024-01-09T12:36:47.750Z,56.88
2024-01-09T12:39:19.435Z,55.80
2024-01-09T12:41:51.619Z,55.29
2024-01-09T12:44:23.904Z,55.53
2024-01-09T12:46:55.620Z,55.54
2024-01-09T12:49:27.786Z,55.78
2024-01-09T12:51:59.577Z,55.31
2024-01-09T12:54:31.587Z,54.88
2024-01-09T12:57:03.385Z,54.86
2024-01-09T12:59:35.211Z,54.47
2024-01-09T13:02:06.922Z,53.75
2024-01-09T13:04:38.656Z,53.40
2024-01-09T13:07:10.603Z,53.75
2024-01-09T13:09:42.319Z,53.19
2024-01-09T13:12:15.419Z,53.37
2024-01-09T13:14:47.501Z,52.64
2024-01-09T13:17:19.239Z,54.18
2024-01-09T13:19:50.966Z,53.57
2024-01-09T13:24:57.813Z,53.13
2024-01-09T13:27:30.043Z,53.00
2024-01-09T13:32:36.914Z,52.64
2024-01-09T13:35:08.955Z,51.58
2024-01-09T13:37:40.752Z,52.08
2024-01-09T13:40:12.815Z,51.85
2024-01-09T13:42:44.527Z,51.26
2024-01-09T13:45:16.892Z,51.51
2024-01-09T13:47:48.701Z,51.85
2024-01-09T13:52:55.287Z,52.01
2024-01-09T13:55:27.461Z,52.13
2024-01-09T13:57:59.480Z,52.39
2024-01-09T14:00:31.477Z,52.98
2024-01-09T14:03:03.458Z,53.09
2024-01-09T14:05:35.214Z,53.51
2024-01-09T14:08:07.017Z,52.91
2024-01-09T14:10:38.864Z,53.06
2024-01-09T14:13:12.809Z,53.27
2024-01-09T14:15:44.771Z,53.79
2024-01-09T14:18:16.907Z,53.57
2024-01-09T14:20:48.679Z,53.53
2024-01-09T14:23:20.625Z,53.89
2024-01-09T14:25:52.461Z,54.17
2024-01-09T14:28:24.253Z,54.63
2024-01-09T14:30:56.440Z,54.52
2024-01-09T14:33:28.275Z,55.45
2024-01-09T14:36:00.399Z,55.68
2024-01-09T14:38:32.179Z,55.93
2024-01-09T14:41:04.481Z,56.36
2024-01-09T14:43:37.828Z,56.31
2024-01-09T14:46:10.889Z,56.63
2024-01-09T14:48:42.688Z,56.91
2024-01-09T14:51:14.904Z,57.61
2024-01-09T14:53:47.278Z,58.10
2024-01-09T14:56:19.536Z,58.46
2024-01-09T14:58:51.674Z,59.21
2024-01-09T15:01:23.506Z,59.35
2024-01-09T15:03:55.596Z,59.94
2024-01-09T15:06:27.453Z,60.02
2024-01-09T15:08:59.601Z,60.32
2024-01-09T15:11:31.298Z,60.81
2024-01-09T15:14:03.410Z,61.35
2024-01-09T15:16:35.227Z,61.86
2024-01-09T15:19:07.350Z,62.17
2024-01-09T15:21:39.389Z,62.62
2024-01-09T15:24:11.543Z,63.02
2024-01-09T15:26:43.438Z,63.45
2024-01-09T15:29:15.153Z,63.34
2024-01-09T15:31:47.268Z,63.85
2024-01-09T15:34:19.104Z,64.55
2024-01-09T15:36:51.290Z,65.34
2024-01-09T15:39:22.978Z,65.93
2024-01-09T15:41:54.991Z,66.22
2024-01-09T15:44:26.690Z,66.14
2024-01-09T15:46:58.891Z,66.14
2024-01-09T15:49:31.128Z,66.86
2024-01-09T15:52:02.857Z,67.08
2024-01-09T15:54:34.905Z,67.61
2024-01-09T15:57:06.624Z,67.90
2024-01-09T15:59:38.733Z,67.83
2024-01-09T16:02:10.660Z,68.09
2024-01-09T16:04:42.701Z,68.28
2024-01-09T16:07:14.485Z,68.54
2024-01-09T16:09:46.356Z,68.84
2024-01-09T16:12:18.072Z,68.90
2024-01-09T16:14:50.109Z,69.18
2024-01-09T16:17:22.071Z,69.32
2024-01-09T16:19:53.975Z,69.81
2024-01-09T16:22:26.034Z,69.87
2024-01-09T16:24:57.807Z,69.84
2024-01-09T16:27:29.541Z,70.54
2024-01-09T16:30:01.267Z,70.97
2024-01-09T16:32:33.033Z,70.85
2024-01-09T16:35:04.933Z,71.42
2024-01-09T16:37:36.788Z,71.63
2024-01-09T16:40:11.531Z,71.78
2024-01-09T16:42:43.998Z,72.13
2024-01-09T16:45:15.740Z,72.23
2024-01-09T16:47:47.508Z,72.27
2024-01-09T16:50:19.798Z,72.51
2024-01-09T16:52:51.575Z,72.93
2024-01-09T16:55:23.396Z,73.10
2024-01-09T16:57:55.148Z,72.93
2024-01-09T17:00:27.108Z,73.09
2024-01-09T17:02:58.859Z,72.86
2024-01-09T17:05:31.023Z,72.96
2024-01-09T17:08:03.168Z,73.43
2024-01-09T17:10:35.345Z,73.31
2024-01-09T17:13:07.364Z,73.22
2024-01-09T17:15:39.057Z,73.28
2024-01-09T17:18:10.809Z,73.84
2024-01-09T17:20:42.542Z,74.31
2024-01-09T17:23:14.687Z,74.16
2024-01-09T17:25:46.449Z,74.31
2024-01-09T17:28:18.292Z,74.49
2024-01-09T17:30:50.014Z,74.78
2024-01-09T17:33:22.302Z,74.86
2024-01-09T17:35:54.418Z,75.10
2024-01-09T17:38:26.508Z,75.13
2024-01-09T17:40:58.255Z,75.04
2024-01-09T17:43:30.002Z,75.03
2024-01-09T17:46:01.991Z,75.52
2024-01-09T17:48:35.522Z,76.35
2024-01-09T17:51:08.143Z,76.12
2024-01-09T17:53:39.975Z,76.88
2024-01-09T17:56:11.773Z,76.66
2024-01-09T17:58:43.553Z,78.56
2024-01-09T18:01:15.400Z,77.31
2024-01-09T18:03:47.186Z,77.25
2024-01-09T18:06:18.922Z,77.96
2024-01-09T18:08:50.949Z,77.74
2024-01-09T18:11:22.652Z,78.15
2024-01-09T18:13:54.697Z,78.16
2024-01-09T18:16:26.415Z,78.22
2024-01-09T18:18:58.581Z,78.56
2024-01-09T18:21:30.370Z,78.42
2024-01-09T18:24:02.391Z,78.45
2024-01-09T18:26:36.413Z,78.48
2024-01-09T18:29:14.656Z,78.62
2024-01-09T18:31:50.572Z,78.29
2024-01-09T18:34:22.848Z,78.80
2024-01-09T18:36:55.351Z,79.08
2024-01-09T18:39:27.458Z,78.85
2024-01-09T18:41:59.642Z,79.02
2024-01-09T18:44:31.352Z,79.13
2024-01-09T18:47:03.470Z,79.40
2024-01-09T18:49:35.298Z,79.35
2024-01-09T18:52:07.441Z,79.53
2024-01-09T18:54:39.210Z,79.56
2024-01-09T18:57:11.272Z,79.93
2024-01-09T18:59:42.969Z,79.65
2024-01-09T19:02:15.036Z,81.84
2024-01-09T19:04:47.078Z,80.97
2024-01-09T19:07:18.874Z,80.56
2024-01-09T19:09:50.663Z,80.79
2024-01-09T19:12:22.493Z,80.50
2024-01-09T19:14:54.486Z,80.81
2024-01-09T19:17:26.236Z,81.10
2024-01-09T19:19:58.042Z,80.92
2024-01-09T19:22:29.792Z,81.64
2024-01-09T19:25:04.538Z,82.05
2024-01-09T19:27:37.458Z,82.24
2024-01-09T19:30:09.623Z,82.25
2024-01-09T19:32:41.735Z,81.94
2024-01-09T19:35:13.512Z,82.22
2024-01-09T19:37:45.470Z,81.91
2024-01-09T19:40:17.169Z,82.08
2024-01-09T19:42:49.199Z,82.52
2024-01-09T19:45:28.019Z,82.72
2024-01-09T19:48:00.242Z,82.76
2024-01-09T19:50:32.009Z,82.52
2024-01-09T19:53:04.157Z,82.72
2024-01-09T19:55:36.372Z,82.92
2024-01-09T19:58:08.435Z,83.23
2024-01-09T20:00:43.737Z,83.25
2024-01-09T20:03:15.650Z,83.46
2024-01-09T20:05:47.514Z,83.72
2024-01-09T20:08:19.479Z,83.93
2024-01-09T20:10:51.631Z,84.15
2024-01-09T20:13:23.350Z,83.61
2024-01-09T20:15:55.231Z,83.85
2024-01-09T20:18:27.003Z,83.64
2024-01-09T20:21:02.053Z,83.47
2024-01-09T20:23:34.053Z,83.61
2024-01-09T20:26:05.823Z,83.54
2024-01-09T20:28:43.630Z,83.35
2024-01-09T20:31:15.382Z,83.33
2024-01-09T20:33:47.340Z,83.47
2024-01-09T20:36:19.262Z,83.78
2024-01-09T20:38:51.279Z,83.55
2024-01-09T20:41:23.122Z,83.53
2024-01-09T20:43:54.931Z,83.52
2024-01-09T20:46:26.759Z,83.42
2024-01-09T20:48:58.793Z,83.08
2024-01-09T20:51:32.673Z,83.41
2024-01-09T20:54:05.144Z,83.42
2024-01-09T20:56:37.160Z,83.38
2024-01-09T20:59:09.028Z,83.77
2024-01-09T21:01:40.824Z,84.73
2024-01-09T21:04:13.515Z,84.81
2024-01-09T21:06:45.698Z,84.32
2024-01-09T21:09:17.450Z,83.89
2024-01-09T21:11:49.535Z,83.96
2024-01-09T21:14:21.627Z,83.65
2024-01-09T21:16:53.767Z,83.32
2024-01-09T21:19:26.163Z,83.63
2024-01-09T21:21:58.027Z,83.55
2024-01-09T21:24:32.730Z,83.52
2024-01-09T21:27:04.418Z,83.82
2024-01-09T21:29:36.426Z,84.21
2024-01-09T21:32:08.234Z,84.15
2024-01-09T21:34:40.323Z,84.37
2024-01-09T21:37:12.041Z,84.46
2024-01-09T21:39:43.973Z,84.63
2024-01-09T21:42:15.993Z,84.83
2024-01-09T21:44:47.726Z,85.07
2024-01-09T21:47:19.603Z,84.95
2024-01-09T21:49:51.367Z,84.85
2024-01-09T21:52:23.378Z,85.26
2024-01-09T21:54:55.090Z,85.32
2024-01-09T21:57:27.122Z,85.18
2024-01-09T21:59:58.816Z,85.28
2024-01-09T22:02:31.008Z,85.89
2024-01-09T22:05:02.723Z,86.06
2024-01-09T22:07:34.706Z,86.25
2024-01-09T22:10:06.613Z,86.05
2024-01-09T22:12:38.310Z,86.05
2024-01-09T22:15:10.350Z,86.21
2024-01-09T22:17:42.634Z,86.38
2024-01-09T22:20:15.091Z,86.25
2024-01-09T22:22:46.874Z,86.38
2024-01-09T22:25:18.980Z,86.40
2024-01-09T22:27:50.694Z,86.73
2024-01-09T22:30:23.626Z,87.16
2024-01-09T22:32:56.253Z,87.61
2024-01-09T22:35:28.381Z,87.28
2024-01-09T22:38:00.220Z,86.83
2024-01-09T22:40:32.033Z,86.86
2024-01-09T22:43:04.118Z,87.50
2024-01-09T22:45:35.845Z,87.18
2024-01-09T22:48:08.026Z,88.54
2024-01-09T22:50:42.613Z,88.15
2024-01-09T22:53:16.562Z,87.76
2024-01-09T22:55:48.369Z,87.96
2024-01-09T22:58:20.527Z,87.94
2024-01-09T23:00:52.289Z,88.09
2024-01-09T23:03:24.549Z,88.15
2024-01-09T23:05:56.792Z,88.35
2024-01-09T23:08:28.528Z,88.32
2024-01-09T23:11:00.541Z,88.46
2024-01-09T23:13:32.302Z,88.29
2024-01-09T23:16:04.015Z,88.41
2024-01-09T23:18:35.846Z,88.56
2024-01-09T23:21:07.914Z,88.55
2024-01-09T23:23:39.622Z,88.61
2024-01-09T23:26:11.447Z,88.67
2024-01-09T23:28:43.282Z,88.97
2024-01-09T23:31:15.475Z,88.74
2024-01-09T23:33:47.251Z,88.82
2024-01-09T23:36:19.377Z,89.00
2024-01-09T23:38:51.406Z,88.91
2024-01-09T23:41:23.118Z,88.84
2024-01-09T23:43:55.413Z,88.96
2024-01-09T23:46:27.179Z,88.85
2024-01-09T23:48:59.295Z,89.64
2024-01-09T23:51:31.008Z,89.04
2024-01-09T23:54:03.065Z,89.53
2024-01-09T23:56:34.789Z,89.32
2024-01-09T23:59:06.766Z,89.76
